sensor_id;sensor_type;location;lat;lon;timestamp;P1;durP1;ratioP1;P2;durP2;ratioP2
17283;SDS011;8760;52.248;20.952;2023-07-29T00:01:47;13.65;;;8.30;;
17283;SDS011;8760;52.248;20.952;2023-07-29T00:04:14;9.43;;;8.48;;
17283;SDS011;8760;52.248;20.952;2023-07-29T00:06:41;9.55;;;7.88;;
17283;SDS011;8760;52.248;20.952;2023-07-29T00:09:08;10.50;;;8.20;;
17283;SDS011;8760;52.248;20.952;2023-07-29T00:11:35;12.95;;;8.75;;
17283;SDS011;8760;52.248;20.952;2023-07-29T00:14:02;10.05;;;8.43;;
17283;SDS011;8760;52.248;20.952;2023-07-29T00:16:30;14.68;;;9.18;;
17283;SDS011;8760;52.248;20.952;2023-07-29T00:18:57;14.25;;;9.50;;
17283;SDS011;8760;52.248;20.952;2023-07-29T00:21:24;10.23;;;8.98;;
17283;SDS011;8760;52.248;20.952;2023-07-29T00:23:51;16.30;;;9.35;;
17283;SDS011;8760;52.248;20.952;2023-07-29T00:26:18;10.07;;;8.57;;
17283;SDS011;8760;52.248;20.952;2023-07-29T00:28:46;14.80;;;8.60;;
17283;SDS011;8760;52.248;20.952;2023-07-29T00:31:13;11.82;;;8.85;;
17283;SDS011;8760;52.248;20.952;2023-07-29T00:33:41;10.73;;;9.10;;
17283;SDS011;8760;52.248;20.952;2023-07-29T00:36:08;10.65;;;9.13;;
17283;SDS011;8760;52.248;20.952;2023-07-29T00:38:35;14.88;;;9.40;;
17283;SDS011;8760;52.248;20.952;2023-07-29T00:41:02;13.35;;;9.88;;
17283;SDS011;8760;52.248;20.952;2023-07-29T00:43:30;12.70;;;9.93;;
17283;SDS011;8760;52.248;20.952;2023-07-29T00:45:56;11.20;;;9.93;;
17283;SDS011;8760;52.248;20.952;2023-07-29T00:48:23;14.82;;;9.98;;
17283;SDS011;8760;52.248;20.952;2023-07-29T00:50:52;16.02;;;10.60;;
17283;SDS011;8760;52.248;20.952;2023-07-29T00:53:20;12.45;;;11.10;;
17283;SDS011;8760;52.248;20.952;2023-07-29T00:55:47;13.27;;;11.68;;
17283;SDS011;8760;52.248;20.952;2023-07-29T00:58:13;20.23;;;13.15;;
17283;SDS011;8760;52.248;20.952;2023-07-29T01:00:41;14.50;;;12.93;;
17283;SDS011;8760;52.248;20.952;2023-07-29T01:03:08;18.63;;;13.82;;
17283;SDS011;8760;52.248;20.952;2023-07-29T01:05:36;21.30;;;13.50;;
17283;SDS011;8760;52.248;20.952;2023-07-29T01:08:13;18.45;;;15.15;;
17283;SDS011;8760;52.248;20.952;2023-07-29T01:10:51;20.48;;;15.60;;
17283;SDS011;8760;52.248;20.952;2023-07-29T01:13:25;20.52;;;15.15;;
17283;SDS011;8760;52.248;20.952;2023-07-29T01:15:58;20.40;;;13.85;;
17283;SDS011;8760;52.248;20.952;2023-07-29T01:18:28;18.63;;;13.93;;
17283;SDS011;8760;52.248;20.952;2023-07-29T01:20:58;22.80;;;14.63;;
17283;SDS011;8760;52.248;20.952;2023-07-29T01:23:27;16.98;;;13.85;;
17283;SDS011;8760;52.248;20.952;2023-07-29T01:25:55;16.73;;;13.57;;
17283;SDS011;8760;52.248;20.952;2023-07-29T01:28:22;16.88;;;13.68;;
17283;SDS011;8760;52.248;20.952;2023-07-29T01:30:49;15.05;;;13.02;;
17283;SDS011;8760;52.248;20.952;2023-07-29T01:33:24;16.10;;;12.52;;
17283;SDS011;8760;52.248;20.952;2023-07-29T01:35:54;20.60;;;12.82;;
17283;SDS011;8760;52.248;20.952;2023-07-29T01:38:27;17.83;;;13.05;;
17283;SDS011;8760;52.248;20.952;2023-07-29T01:40:59;14.98;;;11.95;;
17283;SDS011;8760;52.248;20.952;2023-07-29T01:43:28;13.57;;;11.30;;
17283;SDS011;8760;52.248;20.952;2023-07-29T01:45:55;12.93;;;11.48;;
17283;SDS011;8760;52.248;20.952;2023-07-29T01:48:22;12.80;;;11.05;;
17283;SDS011;8760;52.248;20.952;2023-07-29T01:50:49;15.82;;;11.68;;
17283;SDS011;8760;52.248;20.952;2023-07-29T01:53:16;15.07;;;12.20;;
17283;SDS011;8760;52.248;20.952;2023-07-29T01:55:44;12.98;;;11.57;;
17283;SDS011;8760;52.248;20.952;2023-07-29T01:58:11;15.18;;;11.65;;
17283;SDS011;8760;52.248;20.952;2023-07-29T02:00:39;13.75;;;11.35;;
17283;SDS011;8760;52.248;20.952;2023-07-29T02:03:06;15.48;;;10.90;;
17283;SDS011;8760;52.248;20.952;2023-07-29T02:05:33;14.27;;;10.80;;
17283;SDS011;8760;52.248;20.952;2023-07-29T02:08:00;13.48;;;10.82;;
17283;SDS011;8760;52.248;20.952;2023-07-29T02:10:27;14.40;;;11.85;;
17283;SDS011;8760;52.248;20.952;2023-07-29T02:12:55;13.05;;;11.13;;
17283;SDS011;8760;52.248;20.952;2023-07-29T02:15:22;12.95;;;11.63;;
17283;SDS011;8760;52.248;20.952;2023-07-29T02:17:49;11.98;;;10.77;;
17283;SDS011;8760;52.248;20.952;2023-07-29T02:20:17;13.40;;;12.02;;
17283;SDS011;8760;52.248;20.952;2023-07-29T02:22:44;14.05;;;12.60;;
17283;SDS011;8760;52.248;20.952;2023-07-29T02:25:11;15.13;;;12.25;;
17283;SDS011;8760;52.248;20.952;2023-07-29T02:27:38;14.90;;;12.93;;
17283;SDS011;8760;52.248;20.952;2023-07-29T02:30:07;14.10;;;11.90;;
17283;SDS011;8760;52.248;20.952;2023-07-29T02:32:35;14.35;;;12.75;;
17283;SDS011;8760;52.248;20.952;2023-07-29T02:35:02;15.02;;;12.65;;
17283;SDS011;8760;52.248;20.952;2023-07-29T02:37:30;16.30;;;13.40;;
17283;SDS011;8760;52.248;20.952;2023-07-29T02:39:57;17.48;;;13.30;;
17283;SDS011;8760;52.248;20.952;2023-07-29T02:42:24;17.13;;;14.07;;
17283;SDS011;8760;52.248;20.952;2023-07-29T02:44:51;15.45;;;13.57;;
17283;SDS011;8760;52.248;20.952;2023-07-29T02:47:19;19.63;;;13.82;;
17283;SDS011;8760;52.248;20.952;2023-07-29T02:49:46;17.77;;;14.35;;
17283;SDS011;8760;52.248;20.952;2023-07-29T02:52:13;17.52;;;14.32;;
17283;SDS011;8760;52.248;20.952;2023-07-29T02:54:40;23.95;;;14.80;;
17283;SDS011;8760;52.248;20.952;2023-07-29T02:57:07;29.08;;;13.63;;
17283;SDS011;8760;52.248;20.952;2023-07-29T02:59:34;24.80;;;14.68;;
17283;SDS011;8760;52.248;20.952;2023-07-29T03:02:00;20.55;;;13.98;;
17283;SDS011;8760;52.248;20.952;2023-07-29T03:04:29;24.52;;;15.07;;
17283;SDS011;8760;52.248;20.952;2023-07-29T03:06:55;40.83;;;14.25;;
17283;SDS011;8760;52.248;20.952;2023-07-29T03:09:24;33.03;;;14.95;;
17283;SDS011;8760;52.248;20.952;2023-07-29T03:11:51;22.83;;;14.15;;
17283;SDS011;8760;52.248;20.952;2023-07-29T03:14:19;36.53;;;13.05;;
17283;SDS011;8760;52.248;20.952;2023-07-29T03:16:46;22.73;;;13.13;;
17283;SDS011;8760;52.248;20.952;2023-07-29T03:19:14;16.48;;;11.90;;
17283;SDS011;8760;52.248;20.952;2023-07-29T03:21:43;16.95;;;13.00;;
17283;SDS011;8760;52.248;20.952;2023-07-29T03:24:10;38.58;;;13.05;;
17283;SDS011;8760;52.248;20.952;2023-07-29T03:26:37;35.90;;;13.35;;
17283;SDS011;8760;52.248;20.952;2023-07-29T03:29:04;21.95;;;13.38;;
17283;SDS011;8760;52.248;20.952;2023-07-29T03:31:31;30.70;;;14.40;;
17283;SDS011;8760;52.248;20.952;2023-07-29T03:33:58;14.93;;;13.43;;
17283;SDS011;8760;52.248;20.952;2023-07-29T03:36:25;21.15;;;13.05;;
17283;SDS011;8760;52.248;20.952;2023-07-29T03:38:53;16.52;;;13.43;;
17283;SDS011;8760;52.248;20.952;2023-07-29T03:41:20;22.38;;;13.40;;
17283;SDS011;8760;52.248;20.952;2023-07-29T03:43:47;15.98;;;13.75;;
17283;SDS011;8760;52.248;20.952;2023-07-29T03:46:14;27.13;;;13.80;;
17283;SDS011;8760;52.248;20.952;2023-07-29T03:48:44;14.30;;;12.75;;
17283;SDS011;8760;52.248;20.952;2023-07-29T03:51:11;15.30;;;13.60;;
17283;SDS011;8760;52.248;20.952;2023-07-29T03:53:38;20.70;;;13.55;;
17283;SDS011;8760;52.248;20.952;2023-07-29T03:56:06;14.75;;;13.20;;
17283;SDS011;8760;52.248;20.952;2023-07-29T03:58:34;27.38;;;12.88;;
17283;SDS011;8760;52.248;20.952;2023-07-29T04:01:01;17.70;;;12.48;;
17283;SDS011;8760;52.248;20.952;2023-07-29T04:03:29;17.02;;;11.68;;
17283;SDS011;8760;52.248;20.952;2023-07-29T04:05:56;14.40;;;12.40;;
17283;SDS011;8760;52.248;20.952;2023-07-29T04:08:23;29.92;;;12.35;;
17283;SDS011;8760;52.248;20.952;2023-07-29T04:10:50;56.30;;;11.70;;
17283;SDS011;8760;52.248;20.952;2023-07-29T04:13:18;33.63;;;11.13;;
17283;SDS011;8760;52.248;20.952;2023-07-29T04:15:45;30.33;;;12.07;;
17283;SDS011;8760;52.248;20.952;2023-07-29T04:18:12;31.17;;;11.68;;
17283;SDS011;8760;52.248;20.952;2023-07-29T04:20:42;13.68;;;11.50;;
17283;SDS011;8760;52.248;20.952;2023-07-29T04:23:11;26.25;;;12.35;;
17283;SDS011;8760;52.248;20.952;2023-07-29T04:25:38;18.17;;;12.32;;
17283;SDS011;8760;52.248;20.952;2023-07-29T04:28:05;13.32;;;12.13;;
17283;SDS011;8760;52.248;20.952;2023-07-29T04:30:33;14.15;;;11.73;;
17283;SDS011;8760;52.248;20.952;2023-07-29T04:33:00;13.10;;;11.77;;
17283;SDS011;8760;52.248;20.952;2023-07-29T04:35:27;12.40;;;11.00;;
17283;SDS011;8760;52.248;20.952;2023-07-29T04:37:54;13.32;;;12.00;;
17283;SDS011;8760;52.248;20.952;2023-07-29T04:40:21;16.60;;;11.98;;
17283;SDS011;8760;52.248;20.952;2023-07-29T04:42:48;16.63;;;12.38;;
17283;SDS011;8760;52.248;20.952;2023-07-29T04:45:15;21.83;;;12.63;;
17283;SDS011;8760;52.248;20.952;2023-07-29T04:47:43;20.40;;;12.38;;
17283;SDS011;8760;52.248;20.952;2023-07-29T04:50:10;16.48;;;13.00;;
17283;SDS011;8760;52.248;20.952;2023-07-29T04:52:37;17.90;;;13.75;;
17283;SDS011;8760;52.248;20.952;2023-07-29T04:55:04;20.52;;;13.48;;
17283;SDS011;8760;52.248;20.952;2023-07-29T04:57:31;19.02;;;13.45;;
17283;SDS011;8760;52.248;20.952;2023-07-29T04:59:58;18.08;;;12.60;;
17283;SDS011;8760;52.248;20.952;2023-07-29T05:02:25;16.92;;;12.98;;
17283;SDS011;8760;52.248;20.952;2023-07-29T05:04:53;16.88;;;13.63;;
17283;SDS011;8760;52.248;20.952;2023-07-29T05:07:20;17.00;;;13.43;;
17283;SDS011;8760;52.248;20.952;2023-07-29T05:09:47;17.10;;;14.73;;
17283;SDS011;8760;52.248;20.952;2023-07-29T05:12:14;18.77;;;14.55;;
17283;SDS011;8760;52.248;20.952;2023-07-29T05:14:41;18.00;;;14.73;;
17283;SDS011;8760;52.248;20.952;2023-07-29T05:17:08;17.25;;;14.75;;
17283;SDS011;8760;52.248;20.952;2023-07-29T05:19:35;18.00;;;16.23;;
17283;SDS011;8760;52.248;20.952;2023-07-29T05:22:03;17.63;;;15.85;;
17283;SDS011;8760;52.248;20.952;2023-07-29T05:24:30;18.27;;;16.20;;
17283;SDS011;8760;52.248;20.952;2023-07-29T05:26:57;16.52;;;14.93;;
17283;SDS011;8760;52.248;20.952;2023-07-29T05:29:25;16.67;;;15.02;;
17283;SDS011;8760;52.248;20.952;2023-07-29T05:31:52;18.15;;;15.25;;
17283;SDS011;8760;52.248;20.952;2023-07-29T05:34:19;16.85;;;15.27;;
17283;SDS011;8760;52.248;20.952;2023-07-29T05:36:46;17.20;;;15.43;;
17283;SDS011;8760;52.248;20.952;2023-07-29T05:39:15;16.88;;;15.07;;
17283;SDS011;8760;52.248;20.952;2023-07-29T05:41:42;17.48;;;15.77;;
17283;SDS011;8760;52.248;20.952;2023-07-29T05:44:09;17.10;;;15.60;;
17283;SDS011;8760;52.248;20.952;2023-07-29T05:46:36;17.50;;;15.77;;
17283;SDS011;8760;52.248;20.952;2023-07-29T05:49:03;17.27;;;15.68;;
17283;SDS011;8760;52.248;20.952;2023-07-29T05:51:29;16.85;;;15.25;;
17283;SDS011;8760;52.248;20.952;2023-07-29T05:53:56;16.38;;;14.85;;
17283;SDS011;8760;52.248;20.952;2023-07-29T05:56:25;16.52;;;14.93;;
17283;SDS011;8760;52.248;20.952;2023-07-29T05:58:52;16.33;;;14.73;;
17283;SDS011;8760;52.248;20.952;2023-07-29T06:01:19;16.13;;;14.73;;
17283;SDS011;8760;52.248;20.952;2023-07-29T06:03:46;16.38;;;14.77;;
17283;SDS011;8760;52.248;20.952;2023-07-29T06:06:13;16.73;;;15.13;;
17283;SDS011;8760;52.248;20.952;2023-07-29T06:08:40;16.00;;;14.55;;
17283;SDS011;8760;52.248;20.952;2023-07-29T06:11:07;16.60;;;15.05;;
17283;SDS011;8760;52.248;20.952;2023-07-29T06:13:35;16.33;;;14.85;;
17283;SDS011;8760;52.248;20.952;2023-07-29T06:16:02;15.32;;;14.02;;
17283;SDS011;8760;52.248;20.952;2023-07-29T06:18:28;15.02;;;13.68;;
17283;SDS011;8760;52.248;20.952;2023-07-29T06:20:55;16.20;;;14.63;;
17283;SDS011;8760;52.248;20.952;2023-07-29T06:23:22;14.60;;;13.20;;
17283;SDS011;8760;52.248;20.952;2023-07-29T06:25:49;14.70;;;13.07;;
17283;SDS011;8760;52.248;20.952;2023-07-29T06:28:16;14.80;;;13.23;;
17283;SDS011;8760;52.248;20.952;2023-07-29T06:30:44;14.65;;;13.25;;
17283;SDS011;8760;52.248;20.952;2023-07-29T06:33:11;15.68;;;14.18;;
17283;SDS011;8760;52.248;20.952;2023-07-29T06:35:38;14.75;;;13.32;;
17283;SDS011;8760;52.248;20.952;2023-07-29T06:38:04;14.77;;;13.35;;
17283;SDS011;8760;52.248;20.952;2023-07-29T06:40:31;14.40;;;11.90;;
17283;SDS011;8760;52.248;20.952;2023-07-29T06:42:58;13.30;;;12.15;;
17283;SDS011;8760;52.248;20.952;2023-07-29T06:45:25;12.82;;;11.73;;
17283;SDS011;8760;52.248;20.952;2023-07-29T06:47:53;13.35;;;12.18;;
17283;SDS011;8760;52.248;20.952;2023-07-29T06:50:20;13.05;;;11.95;;
17283;SDS011;8760;52.248;20.952;2023-07-29T06:52:47;13.95;;;12.57;;
17283;SDS011;8760;52.248;20.952;2023-07-29T06:55:14;14.77;;;13.20;;
17283;SDS011;8760;52.248;20.952;2023-07-29T06:57:41;14.80;;;13.35;;
17283;SDS011;8760;52.248;20.952;2023-07-29T07:00:08;13.93;;;12.63;;
17283;SDS011;8760;52.248;20.952;2023-07-29T07:02:35;13.48;;;12.18;;
17283;SDS011;8760;52.248;20.952;2023-07-29T07:05:04;13.70;;;12.50;;
17283;SDS011;8760;52.248;20.952;2023-07-29T07:07:31;12.25;;;11.20;;
17283;SDS011;8760;52.248;20.952;2023-07-29T07:09:58;13.23;;;11.93;;
17283;SDS011;8760;52.248;20.952;2023-07-29T07:12:25;13.40;;;12.18;;
17283;SDS011;8760;52.248;20.952;2023-07-29T07:14:52;12.98;;;11.77;;
17283;SDS011;8760;52.248;20.952;2023-07-29T07:17:19;13.40;;;12.00;;
17283;SDS011;8760;52.248;20.952;2023-07-29T07:19:46;13.35;;;12.00;;
17283;SDS011;8760;52.248;20.952;2023-07-29T07:22:14;12.80;;;11.80;;
17283;SDS011;8760;52.248;20.952;2023-07-29T07:24:42;12.23;;;11.13;;
17283;SDS011;8760;52.248;20.952;2023-07-29T07:27:09;11.57;;;10.43;;
17283;SDS011;8760;52.248;20.952;2023-07-29T07:29:36;13.82;;;10.38;;
17283;SDS011;8760;52.248;20.952;2023-07-29T07:32:03;10.52;;;9.32;;
17283;SDS011;8760;52.248;20.952;2023-07-29T07:34:30;10.35;;;9.45;;
17283;SDS011;8760;52.248;20.952;2023-07-29T07:36:58;9.07;;;8.20;;
17283;SDS011;8760;52.248;20.952;2023-07-29T07:39:27;9.00;;;8.10;;
17283;SDS011;8760;52.248;20.952;2023-07-29T07:41:53;8.60;;;7.75;;
17283;SDS011;8760;52.248;20.952;2023-07-29T07:44:20;8.60;;;7.72;;
17283;SDS011;8760;52.248;20.952;2023-07-29T07:46:47;8.10;;;7.32;;
17283;SDS011;8760;52.248;20.952;2023-07-29T07:49:14;8.45;;;7.32;;
17283;SDS011;8760;52.248;20.952;2023-07-29T07:51:41;7.95;;;7.10;;
17283;SDS011;8760;52.248;20.952;2023-07-29T07:54:09;7.55;;;6.95;;
17283;SDS011;8760;52.248;20.952;2023-07-29T07:56:38;6.72;;;6.10;;
17283;SDS011;8760;52.248;20.952;2023-07-29T07:59:05;7.22;;;6.00;;
17283;SDS011;8760;52.248;20.952;2023-07-29T08:01:33;6.78;;;6.05;;
17283;SDS011;8760;52.248;20.952;2023-07-29T08:04:00;6.72;;;6.10;;
17283;SDS011;8760;52.248;20.952;2023-07-29T08:06:27;6.80;;;6.00;;
17283;SDS011;8760;52.248;20.952;2023-07-29T08:08:54;7.32;;;6.63;;
17283;SDS011;8760;52.248;20.952;2023-07-29T08:11:21;7.28;;;6.57;;
17283;SDS011;8760;52.248;20.952;2023-07-29T08:13:50;6.43;;;5.78;;
17283;SDS011;8760;52.248;20.952;2023-07-29T08:16:17;9.65;;;8.10;;
17283;SDS011;8760;52.248;20.952;2023-07-29T08:18:44;5.95;;;5.38;;
17283;SDS011;8760;52.248;20.952;2023-07-29T08:21:12;6.60;;;6.00;;
17283;SDS011;8760;52.248;20.952;2023-07-29T08:23:39;6.07;;;5.57;;
17283;SDS011;8760;52.248;20.952;2023-07-29T08:26:06;5.97;;;5.13;;
17283;SDS011;8760;52.248;20.952;2023-07-29T08:28:33;5.80;;;5.15;;
17283;SDS011;8760;52.248;20.952;2023-07-29T08:31:04;5.20;;;4.80;;
17283;SDS011;8760;52.248;20.952;2023-07-29T08:33:31;5.18;;;4.60;;
17283;SDS011;8760;52.248;20.952;2023-07-29T08:35:59;5.00;;;4.60;;
17283;SDS011;8760;52.248;20.952;2023-07-29T08:38:26;4.80;;;4.38;;
17283;SDS011;8760;52.248;20.952;2023-07-29T08:40:57;5.20;;;4.70;;
17283;SDS011;8760;52.248;20.952;2023-07-29T08:43:30;5.72;;;4.63;;
17283;SDS011;8760;52.248;20.952;2023-07-29T08:45:58;4.28;;;3.88;;
17283;SDS011;8760;52.248;20.952;2023-07-29T08:48:31;3.50;;;3.20;;
17283;SDS011;8760;52.248;20.952;2023-07-29T08:51:01;2.80;;;2.60;;
17283;SDS011;8760;52.248;20.952;2023-07-29T08:53:29;2.72;;;2.53;;
17283;SDS011;8760;52.248;20.952;2023-07-29T08:55:57;2.90;;;2.70;;
17283;SDS011;8760;52.248;20.952;2023-07-29T08:58:25;3.42;;;3.20;;
17283;SDS011;8760;52.248;20.952;2023-07-29T09:00:52;3.53;;;2.63;;
17283;SDS011;8760;52.248;20.952;2023-07-29T09:03:19;3.35;;;2.40;;
17283;SDS011;8760;52.248;20.952;2023-07-29T09:05:48;2.67;;;2.42;;
17283;SDS011;8760;52.248;20.952;2023-07-29T09:08:14;2.70;;;2.50;;
17283;SDS011;8760;52.248;20.952;2023-07-29T09:10:41;4.22;;;2.70;;
17283;SDS011;8760;52.248;20.952;2023-07-29T09:13:08;2.78;;;2.58;;
17283;SDS011;8760;52.248;20.952;2023-07-29T09:15:35;3.00;;;2.70;;
17283;SDS011;8760;52.248;20.952;2023-07-29T09:18:10;2.30;;;2.20;;
17283;SDS011;8760;52.248;20.952;2023-07-29T09:20:37;2.50;;;2.28;;
17283;SDS011;8760;52.248;20.952;2023-07-29T09:23:07;3.97;;;2.25;;
17283;SDS011;8760;52.248;20.952;2023-07-29T09:25:35;2.50;;;2.30;;
17283;SDS011;8760;52.248;20.952;2023-07-29T09:28:07;2.10;;;2.00;;
17283;SDS011;8760;52.248;20.952;2023-07-29T09:30:35;2.70;;;2.50;;
17283;SDS011;8760;52.248;20.952;2023-07-29T09:33:03;4.00;;;2.20;;
17283;SDS011;8760;52.248;20.952;2023-07-29T09:35:30;2.55;;;2.05;;
17283;SDS011;8760;52.248;20.952;2023-07-29T09:37:59;2.60;;;2.33;;
17283;SDS011;8760;52.248;20.952;2023-07-29T09:40:27;2.00;;;1.90;;
17283;SDS011;8760;52.248;20.952;2023-07-29T09:43:01;3.33;;;2.15;;
17283;SDS011;8760;52.248;20.952;2023-07-29T09:45:29;3.20;;;2.17;;
17283;SDS011;8760;52.248;20.952;2023-07-29T09:47:56;2.08;;;1.98;;
17283;SDS011;8760;52.248;20.952;2023-07-29T09:50:24;3.10;;;2.40;;
17283;SDS011;8760;52.248;20.952;2023-07-29T09:52:51;2.30;;;1.75;;
17283;SDS011;8760;52.248;20.952;2023-07-29T09:55:19;4.32;;;2.38;;
17283;SDS011;8760;52.248;20.952;2023-07-29T09:57:54;2.15;;;1.95;;
17283;SDS011;8760;52.248;20.952;2023-07-29T10:00:23;2.63;;;2.35;;
17283;SDS011;8760;52.248;20.952;2023-07-29T10:02:50;2.28;;;2.10;;
17283;SDS011;8760;52.248;20.952;2023-07-29T10:05:18;2.67;;;1.98;;
17283;SDS011;8760;52.248;20.952;2023-07-29T10:07:46;2.30;;;2.10;;
17283;SDS011;8760;52.248;20.952;2023-07-29T10:10:14;2.10;;;1.92;;
17283;SDS011;8760;52.248;20.952;2023-07-29T10:12:42;2.10;;;2.00;;
17283;SDS011;8760;52.248;20.952;2023-07-29T10:15:11;2.60;;;1.90;;
17283;SDS011;8760;52.248;20.952;2023-07-29T10:17:39;2.72;;;2.53;;
17283;SDS011;8760;52.248;20.952;2023-07-29T10:20:06;3.80;;;2.38;;
17283;SDS011;8760;52.248;20.952;2023-07-29T10:22:36;3.28;;;2.47;;
17283;SDS011;8760;52.248;20.952;2023-07-29T10:25:05;2.10;;;2.00;;
17283;SDS011;8760;52.248;20.952;2023-07-29T10:27:36;2.05;;;1.85;;
17283;SDS011;8760;52.248;20.952;2023-07-29T10:30:11;2.00;;;1.90;;
17283;SDS011;8760;52.248;20.952;2023-07-29T10:32:41;2.60;;;2.40;;
17283;SDS011;8760;52.248;20.952;2023-07-29T10:35:10;2.33;;;1.88;;
17283;SDS011;8760;52.248;20.952;2023-07-29T10:37:37;2.28;;;2.08;;
17283;SDS011;8760;52.248;20.952;2023-07-29T10:40:06;1.92;;;1.83;;
17283;SDS011;8760;52.248;20.952;2023-07-29T10:42:34;2.40;;;2.08;;
17283;SDS011;8760;52.248;20.952;2023-07-29T10:47:55;2.08;;;1.98;;
17283;SDS011;8760;52.248;20.952;2023-07-29T10:50:22;3.03;;;2.38;;
17283;SDS011;8760;52.248;20.952;2023-07-29T10:52:50;2.22;;;1.60;;
17283;SDS011;8760;52.248;20.952;2023-07-29T10:55:28;2.10;;;1.88;;
17283;SDS011;8760;52.248;20.952;2023-07-29T10:58:05;2.25;;;1.75;;
17283;SDS011;8760;52.248;20.952;2023-07-29T11:00:38;2.60;;;1.88;;
17283;SDS011;8760;52.248;20.952;2023-07-29T11:03:08;1.90;;;1.75;;
17283;SDS011;8760;52.248;20.952;2023-07-29T11:05:46;2.15;;;1.80;;
17283;SDS011;8760;52.248;20.952;2023-07-29T11:08:17;1.65;;;1.55;;
17283;SDS011;8760;52.248;20.952;2023-07-29T11:10:57;3.08;;;2.75;;
17283;SDS011;8760;52.248;20.952;2023-07-29T11:13:26;2.15;;;1.95;;
17283;SDS011;8760;52.248;20.952;2023-07-29T11:15:54;1.83;;;1.73;;
17283;SDS011;8760;52.248;20.952;2023-07-29T11:18:24;1.83;;;1.73;;
17283;SDS011;8760;52.248;20.952;2023-07-29T11:20:54;2.17;;;1.83;;
17283;SDS011;8760;52.248;20.952;2023-07-29T11:23:27;1.98;;;1.88;;
17283;SDS011;8760;52.248;20.952;2023-07-29T11:25:55;2.05;;;1.73;;
17283;SDS011;8760;52.248;20.952;2023-07-29T11:28:23;4.00;;;1.88;;
17283;SDS011;8760;52.248;20.952;2023-07-29T11:30:50;1.73;;;1.63;;
17283;SDS011;8760;52.248;20.952;2023-07-29T11:33:18;2.50;;;2.00;;
17283;SDS011;8760;52.248;20.952;2023-07-29T11:35:47;1.83;;;1.73;;
17283;SDS011;8760;52.248;20.952;2023-07-29T11:38:16;2.13;;;1.80;;
17283;SDS011;8760;52.248;20.952;2023-07-29T11:40:43;1.70;;;1.60;;
17283;SDS011;8760;52.248;20.952;2023-07-29T11:43:19;1.95;;;1.67;;
17283;SDS011;8760;52.248;20.952;2023-07-29T11:45:46;2.33;;;2.03;;
17283;SDS011;8760;52.248;20.952;2023-07-29T11:48:13;2.63;;;2.40;;
17283;SDS011;8760;52.248;20.952;2023-07-29T11:50:40;1.98;;;1.80;;
17283;SDS011;8760;52.248;20.952;2023-07-29T11:53:08;2.70;;;2.03;;
17283;SDS011;8760;52.248;20.952;2023-07-29T11:55:35;2.30;;;2.10;;
17283;SDS011;8760;52.248;20.952;2023-07-29T11:58:03;2.75;;;2.00;;
17283;SDS011;8760;52.248;20.952;2023-07-29T12:00:31;2.13;;;1.60;;
17283;SDS011;8760;52.248;20.952;2023-07-29T12:02:57;2.00;;;1.90;;
17283;SDS011;8760;52.248;20.952;2023-07-29T12:05:25;2.00;;;1.80;;
17283;SDS011;8760;52.248;20.952;2023-07-29T12:07:53;2.33;;;2.13;;
17283;SDS011;8760;52.248;20.952;2023-07-29T12:10:21;2.10;;;2.00;;
17283;SDS011;8760;52.248;20.952;2023-07-29T12:12:49;1.83;;;1.73;;
17283;SDS011;8760;52.248;20.952;2023-07-29T12:15:23;3.67;;;1.90;;
17283;SDS011;8760;52.248;20.952;2023-07-29T12:17:52;2.15;;;1.95;;
17283;SDS011;8760;52.248;20.952;2023-07-29T12:20:21;2.50;;;1.83;;
17283;SDS011;8760;52.248;20.952;2023-07-29T12:22:52;2.08;;;1.98;;
17283;SDS011;8760;52.248;20.952;2023-07-29T12:25:21;1.85;;;1.70;;
17283;SDS011;8760;52.248;20.952;2023-07-29T12:27:49;1.98;;;1.88;;
17283;SDS011;8760;52.248;20.952;2023-07-29T12:30:16;1.90;;;1.80;;
17283;SDS011;8760;52.248;20.952;2023-07-29T12:32:46;2.00;;;1.90;;
17283;SDS011;8760;52.248;20.952;2023-07-29T12:35:13;3.80;;;2.00;;
17283;SDS011;8760;52.248;20.952;2023-07-29T12:37:40;3.38;;;1.95;;
17283;SDS011;8760;52.248;20.952;2023-07-29T12:40:09;3.40;;;1.95;;
17283;SDS011;8760;52.248;20.952;2023-07-29T12:42:50;2.30;;;2.10;;
17283;SDS011;8760;52.248;20.952;2023-07-29T12:45:18;2.13;;;1.90;;
17283;SDS011;8760;52.248;20.952;2023-07-29T12:47:47;1.98;;;1.88;;
17283;SDS011;8760;52.248;20.952;2023-07-29T12:50:15;2.58;;;2.03;;
17283;SDS011;8760;52.248;20.952;2023-07-29T12:52:42;2.60;;;2.13;;
17283;SDS011;8760;52.248;20.952;2023-07-29T12:55:08;2.20;;;2.00;;
17283;SDS011;8760;52.248;20.952;2023-07-29T12:57:39;2.60;;;2.10;;
17283;SDS011;8760;52.248;20.952;2023-07-29T13:00:08;3.83;;;2.00;;
17283;SDS011;8760;52.248;20.952;2023-07-29T13:02:35;3.88;;;3.13;;
17283;SDS011;8760;52.248;20.952;2023-07-29T13:05:01;4.05;;;1.92;;
17283;SDS011;8760;52.248;20.952;2023-07-29T13:07:30;3.63;;;2.75;;
17283;SDS011;8760;52.248;20.952;2023-07-29T13:09:57;2.20;;;1.95;;
17283;SDS011;8760;52.248;20.952;2023-07-29T13:12:24;1.98;;;1.88;;
17283;SDS011;8760;52.248;20.952;2023-07-29T13:14:52;3.72;;;2.10;;
17283;SDS011;8760;52.248;20.952;2023-07-29T13:17:19;1.83;;;1.70;;
17283;SDS011;8760;52.248;20.952;2023-07-29T13:19:46;5.57;;;1.92;;
17283;SDS011;8760;52.248;20.952;2023-07-29T13:22:13;1.95;;;1.85;;
17283;SDS011;8760;52.248;20.952;2023-07-29T13:24:40;2.00;;;1.90;;
17283;SDS011;8760;52.248;20.952;2023-07-29T13:27:07;2.33;;;2.10;;
17283;SDS011;8760;52.248;20.952;2023-07-29T13:29:34;2.42;;;1.70;;
17283;SDS011;8760;52.248;20.952;2023-07-29T13:32:02;2.00;;;1.80;;
17283;SDS011;8760;52.248;20.952;2023-07-29T13:34:30;1.73;;;1.63;;
17283;SDS011;8760;52.248;20.952;2023-07-29T13:36:56;3.85;;;2.08;;
17283;SDS011;8760;52.248;20.952;2023-07-29T13:39:23;5.68;;;1.98;;
17283;SDS011;8760;52.248;20.952;2023-07-29T13:41:50;2.20;;;2.00;;
17283;SDS011;8760;52.248;20.952;2023-07-29T13:44:17;2.50;;;2.08;;
17283;SDS011;8760;52.248;20.952;2023-07-29T13:46:44;2.13;;;1.92;;
17283;SDS011;8760;52.248;20.952;2023-07-29T13:49:13;2.00;;;1.90;;
17283;SDS011;8760;52.248;20.952;2023-07-29T13:51:39;2.42;;;2.00;;
17283;SDS011;8760;52.248;20.952;2023-07-29T13:54:07;2.67;;;2.00;;
17283;SDS011;8760;52.248;20.952;2023-07-29T13:56:34;1.48;;;1.30;;
17283;SDS011;8760;52.248;20.952;2023-07-29T13:59:01;1.90;;;1.80;;
17283;SDS011;8760;52.248;20.952;2023-07-29T14:01:28;2.92;;;2.08;;
17283;SDS011;8760;52.248;20.952;2023-07-29T14:03:55;2.03;;;1.90;;
17283;SDS011;8760;52.248;20.952;2023-07-29T14:06:23;2.70;;;2.15;;
17283;SDS011;8760;52.248;20.952;2023-07-29T14:08:50;2.55;;;2.22;;
17283;SDS011;8760;52.248;20.952;2023-07-29T14:11:17;1.90;;;1.80;;
17283;SDS011;8760;52.248;20.952;2023-07-29T14:13:43;2.22;;;2.05;;
17283;SDS011;8760;52.248;20.952;2023-07-29T14:16:10;1.90;;;1.75;;
17283;SDS011;8760;52.248;20.952;2023-07-29T14:18:37;3.30;;;1.95;;
17283;SDS011;8760;52.248;20.952;2023-07-29T14:21:04;3.38;;;2.00;;
17283;SDS011;8760;52.248;20.952;2023-07-29T14:23:32;2.13;;;1.95;;
17283;SDS011;8760;52.248;20.952;2023-07-29T14:25:59;2.40;;;2.20;;
17283;SDS011;8760;52.248;20.952;2023-07-29T14:28:26;2.85;;;2.30;;
17283;SDS011;8760;52.248;20.952;2023-07-29T14:30:53;2.28;;;2.10;;
17283;SDS011;8760;52.248;20.952;2023-07-29T14:33:20;2.30;;;2.15;;
17283;SDS011;8760;52.248;20.952;2023-07-29T14:35:47;1.98;;;1.83;;
17283;SDS011;8760;52.248;20.952;2023-07-29T14:38:13;2.20;;;2.00;;
17283;SDS011;8760;52.248;20.952;2023-07-29T14:40:42;2.65;;;2.45;;
17283;SDS011;8760;52.248;20.952;2023-07-29T14:43:08;2.40;;;2.20;;